createdAt,value
2022-08-09T00:00:04.564Z,3.00
2022-08-09T00:02:34.994Z,2.90
2022-08-09T00:06:17.654Z,3.40
2022-08-09T00:07:54.387Z,2.90
2022-08-09T00:10:24.655Z,3.20
2022-08-09T00:12:53.370Z,3.28
2022-08-09T00:15:35.582Z,3.03
2022-08-09T00:18:11.079Z,3.40
2022-08-09T00:20:42.344Z,3.38
2022-08-09T00:23:57.564Z,2.67
2022-08-09T00:26:08.118Z,3.00
2022-08-09T00:28:36.907Z,2.90
2022-08-09T00:31:30.609Z,3.10
2022-08-09T00:33:54.268Z,2.60
2022-08-09T00:36:27.136Z,3.25
2022-08-09T00:38:58.910Z,3.15
2022-08-09T00:44:09.936Z,3.05
2022-08-09T00:44:26.236Z,3.00
2022-08-09T00:46:57.552Z,3.50
2022-08-09T00:49:32.445Z,3.40
2022-08-09T00:52:02.102Z,3.33
2022-08-09T00:54:36.231Z,3.25
2022-08-09T00:57:08.785Z,3.15
2022-08-09T00:59:41.148Z,3.25
2022-08-09T01:02:16.405Z,3.30
2022-08-09T01:04:50.767Z,3.00
2022-08-09T01:07:37.927Z,3.50
2022-08-09T01:10:22.705Z,3.50
2022-08-09T01:13:00.784Z,3.40
2022-08-09T01:15:32.465Z,3.70
2022-08-09T01:18:14.281Z,2.88
2022-08-09T01:20:49.779Z,3.20
2022-08-09T01:24:02.558Z,3.35
2022-08-09T01:26:38.062Z,3.33
2022-08-09T01:29:07.408Z,3.42
2022-08-09T01:32:31.675Z,3.22
2022-08-09T01:34:28.450Z,3.38
2022-08-09T01:36:58.768Z,3.05
2022-08-09T01:39:30.984Z,3.40
2022-08-09T01:42:11.288Z,3.58
2022-08-09T01:44:41.249Z,3.25
2022-08-09T01:47:11.730Z,3.53
2022-08-09T01:49:40.755Z,3.70
2022-08-09T01:52:18.884Z,3.35
2022-08-09T01:54:48.631Z,3.65
2022-08-09T01:57:20.843Z,3.33
2022-08-09T01:59:53.219Z,3.30
2022-08-09T02:02:32.178Z,3.25
2022-08-09T02:05:05.454Z,3.10
2022-08-09T02:08:38.900Z,3.70
2022-08-09T02:10:38.404Z,3.10
2022-08-09T02:13:12.406Z,3.33
2022-08-09T02:15:49.297Z,3.53
2022-08-09T02:18:22.986Z,3.20
2022-08-09T02:20:56.297Z,3.38
2022-08-09T02:23:32.008Z,3.50
2022-08-09T02:26:24.876Z,3.50
2022-08-09T02:28:59.765Z,3.47
2022-08-09T02:31:34.165Z,3.72
2022-08-09T02:34:13.813Z,3.25
2022-08-09T02:36:56.136Z,3.53
2022-08-09T02:39:39.668Z,3.33
2022-08-09T02:42:16.703Z,3.28
2022-08-09T02:44:49.655Z,3.20
2022-08-09T02:47:20.906Z,3.33
2022-08-09T02:50:01.109Z,3.53
2022-08-09T02:52:36.001Z,3.80
2022-08-09T02:55:20.615Z,3.70
2022-08-09T02:58:00.774Z,3.60
2022-08-09T03:00:58.081Z,3.35
2022-08-09T03:04:13.273Z,3.40
2022-08-09T03:06:18.902Z,3.88
2022-08-09T03:08:50.543Z,3.65
2022-08-09T03:12:04.683Z,3.90
2022-08-09T03:14:10.885Z,3.83
2022-08-09T03:16:45.079Z,3.80
2022-08-09T03:19:59.090Z,3.78
2022-08-09T03:22:05.594Z,3.88
2022-08-09T03:24:42.443Z,4.10
2022-08-09T03:27:22.285Z,4.18
2022-08-09T03:29:57.741Z,3.95
2022-08-09T03:32:31.980Z,3.80
2022-08-09T03:35:00.993Z,3.70
2022-08-09T03:37:55.582Z,3.90
2022-08-09T03:40:18.324Z,3.92
2022-08-09T03:42:46.629Z,4.13
2022-08-09T03:45:15.441Z,3.92
2022-08-09T03:47:46.366Z,3.92
2022-08-09T03:50:18.856Z,4.38
2022-08-09T03:52:57.822Z,3.70
2022-08-09T03:55:29.999Z,4.03
2022-08-09T03:58:10.044Z,3.28
2022-08-09T04:00:46.312Z,3.80
2022-08-09T04:03:24.684Z,3.45
2022-08-09T04:06:04.581Z,3.90
2022-08-09T04:08:33.141Z,3.78
2022-08-09T04:11:01.717Z,3.55
2022-08-09T04:13:44.932Z,3.83
2022-08-09T04:16:21.214Z,4.03
2022-08-09T04:18:51.169Z,3.70
2022-08-09T04:21:19.340Z,3.60
2022-08-09T04:23:54.465Z,4.05
2022-08-09T04:26:37.969Z,3.83
2022-08-09T04:29:10.906Z,3.30
2022-08-09T04:31:47.164Z,3.30
2022-08-09T04:34:19.186Z,3.53
2022-08-09T04:36:59.343Z,3.95
2022-08-09T04:39:31.256Z,3.45
2022-08-09T04:41:59.797Z,3.30
2022-08-09T04:44:30.359Z,3.70
2022-08-09T04:47:04.536Z,4.30
2022-08-09T04:49:52.396Z,4.00
2022-08-09T04:52:32.540Z,4.00
2022-08-09T04:55:04.271Z,4.63
2022-08-09T04:57:53.853Z,3.90
2022-08-09T05:00:24.530Z,4.20
2022-08-09T05:02:53.066Z,3.72
2022-08-09T05:05:31.994Z,4.32
2022-08-09T05:08:13.807Z,4.13
2022-08-09T05:10:43.151Z,4.00
2022-08-09T05:13:12.602Z,4.10
2022-08-09T05:15:48.250Z,4.15
2022-08-09T05:18:42.264Z,4.35
2022-08-09T05:21:23.242Z,4.40
2022-08-09T05:23:58.084Z,3.90
2022-08-09T05:26:35.998Z,4.10
2022-08-09T05:29:17.360Z,3.80
2022-08-09T05:31:53.410Z,3.75
2022-08-09T05:34:30.176Z,3.80
2022-08-09T05:37:06.118Z,4.05
2022-08-09T05:39:36.164Z,4.03
2022-08-09T05:42:17.901Z,3.85
2022-08-09T05:44:50.895Z,4.20
2022-08-09T05:47:22.817Z,3.40
2022-08-09T05:50:24.303Z,3.38
2022-08-09T05:52:43.684Z,3.10
2022-08-09T05:55:20.687Z,3.60
2022-08-09T05:57:50.839Z,3.88
2022-08-09T06:00:25.464Z,3.33
2022-08-09T06:02:56.690Z,3.83
2022-08-09T06:05:30.614Z,3.60
2022-08-09T06:08:19.051Z,3.15
2022-08-09T06:10:51.860Z,3.33
2022-08-09T06:13:20.641Z,3.70
2022-08-09T06:15:51.794Z,4.03
2022-08-09T06:18:25.237Z,3.10
2022-08-09T06:20:54.595Z,3.53
2022-08-09T06:23:57.410Z,3.40
2022-08-09T06:26:21.148Z,3.50
2022-08-09T06:29:00.505Z,3.90
2022-08-09T06:31:39.938Z,3.25
2022-08-09T06:34:26.027Z,3.22
2022-08-09T06:36:59.000Z,3.50
2022-08-09T06:39:48.660Z,3.45
2022-08-09T06:42:17.624Z,3.42
2022-08-09T06:44:47.698Z,3.20
2022-08-09T06:47:23.651Z,3.20
2022-08-09T06:50:14.671Z,3.53
2022-08-09T06:52:47.039Z,2.80
2022-08-09T06:55:18.211Z,3.20
2022-08-09T06:58:03.526Z,3.10
2022-08-09T07:00:56.901Z,3.00
2022-08-09T07:03:28.516Z,2.90
2022-08-09T07:06:28.038Z,3.53
2022-08-09T07:08:57.721Z,3.35
2022-08-09T07:11:27.012Z,3.90
2022-08-09T07:14:17.977Z,3.40
2022-08-09T07:16:58.237Z,3.35
2022-08-09T07:19:26.579Z,3.35
2022-08-09T07:21:57.570Z,2.85
2022-08-09T07:24:32.860Z,3.05
2022-08-09T07:27:26.485Z,2.95
2022-08-09T07:30:00.896Z,3.33
2022-08-09T07:32:33.567Z,3.22
2022-08-09T07:35:10.004Z,2.67
2022-08-09T07:37:43.566Z,2.90
2022-08-09T07:40:17.173Z,2.67
2022-08-09T07:42:56.088Z,3.03
2022-08-09T07:45:38.127Z,2.97
2022-08-09T07:48:28.836Z,3.03
2022-08-09T07:52:06.017Z,2.85
2022-08-09T07:54:07.099Z,3.00
2022-08-09T07:56:59.295Z,2.90
2022-08-09T07:59:33.719Z,3.08
2022-08-09T08:02:02.102Z,2.95
2022-08-09T08:04:32.161Z,2.80
2022-08-09T08:07:09.588Z,2.85
2022-08-09T08:09:53.567Z,3.30
2022-08-09T08:12:33.560Z,2.88
2022-08-09T08:15:02.786Z,2.95
2022-08-09T08:17:52.334Z,3.33
2022-08-09T08:20:19.496Z,3.03
2022-08-09T08:23:01.721Z,3.35
2022-08-09T08:25:43.800Z,2.72
2022-08-09T08:28:25.578Z,2.70
2022-08-09T08:30:57.078Z,2.90
2022-08-09T08:33:26.204Z,2.88
2022-08-09T08:36:14.414Z,3.25
2022-08-09T08:38:56.714Z,3.20
2022-08-09T08:41:42.054Z,2.85
2022-08-09T08:44:14.486Z,2.80
2022-08-09T08:47:02.349Z,2.72
2022-08-09T08:49:46.639Z,2.92
2022-08-09T08:52:52.860Z,2.92
2022-08-09T08:55:06.390Z,2.90
2022-08-09T08:57:35.483Z,2.72
2022-08-09T09:00:12.649Z,3.50
2022-08-09T09:02:52.708Z,3.00
2022-08-09T09:05:33.122Z,2.67
2022-08-09T09:08:30.048Z,2.83
2022-08-09T09:11:03.127Z,2.72
2022-08-09T09:13:41.772Z,2.33
2022-08-09T09:16:30.195Z,2.13
2022-08-09T09:19:37.364Z,2.95
2022-08-09T09:22:05.165Z,2.63
2022-08-09T09:24:35.025Z,2.30
2022-08-09T09:27:07.643Z,2.50
2022-08-09T09:30:08.486Z,2.60
2022-08-09T09:32:32.447Z,2.42
2022-08-09T09:35:09.425Z,2.30
2022-08-09T09:37:40.500Z,2.40
2022-08-09T09:40:10.119Z,1.98
2022-08-09T09:42:39.598Z,2.00
2022-08-09T09:45:14.510Z,2.10
2022-08-09T09:47:58.288Z,2.63
2022-08-09T09:50:51.194Z,2.47
2022-08-09T09:53:21.556Z,2.65
2022-08-09T09:56:04.213Z,2.30
2022-08-09T09:58:45.974Z,2.10
2022-08-09T10:01:31.444Z,2.33
2022-08-09T10:04:13.752Z,2.20
2022-08-09T10:06:53.801Z,2.15
2022-08-09T10:09:24.154Z,2.90
2022-08-09T10:12:14.327Z,2.65
2022-08-09T10:14:51.778Z,2.83
2022-08-09T10:17:50.354Z,2.50
2022-08-09T10:20:35.615Z,2.50
2022-08-09T10:23:20.082Z,2.47
2022-08-09T10:26:07.498Z,2.80
2022-08-09T10:28:39.120Z,2.10
2022-08-09T10:34:08.589Z,2.80
2022-08-09T10:36:45.414Z,2.45
2022-08-09T10:39:18.276Z,2.63
2022-08-09T10:41:48.269Z,2.35
2022-08-09T10:44:19.535Z,2.75
2022-08-09T10:48:12.524Z,2.38
2022-08-09T10:50:09.952Z,2.50
2022-08-09T10:53:05.536Z,2.97
2022-08-09T10:55:58.285Z,2.83
2022-08-09T10:58:31.740Z,2.65
2022-08-09T11:03:03.252Z,3.30
2022-08-09T11:04:27.742Z,3.03
2022-08-09T11:07:28.087Z,3.17
2022-08-09T11:10:15.983Z,2.50
2022-08-09T11:13:53.951Z,2.70
2022-08-09T11:16:36.053Z,2.47
2022-08-09T11:19:10.151Z,2.63
2022-08-09T11:22:05.105Z,3.10
2022-08-09T11:25:08.153Z,2.90
2022-08-09T11:28:05.538Z,2.70
2022-08-09T11:30:37.815Z,3.40
2022-08-09T11:33:12.811Z,2.95
2022-08-09T11:35:49.649Z,2.67
2022-08-09T11:38:22.158Z,2.45
2022-08-09T11:40:54.692Z,3.10
2022-08-09T11:43:44.064Z,2.65
2022-08-09T11:46:26.749Z,2.97
2022-08-09T11:49:04.957Z,2.65
2022-08-09T11:52:59.107Z,2.40
2022-08-09T11:55:35.015Z,2.50
2022-08-09T11:58:48.134Z,2.40
2022-08-09T12:02:00.982Z,2.47
2022-08-09T12:04:20.996Z,2.40
2022-08-09T12:06:57.130Z,2.13
2022-08-09T12:09:27.798Z,2.40
2022-08-09T12:12:05.958Z,2.10
2022-08-09T12:15:07.793Z,2.20
2022-08-09T12:17:42.088Z,2.50
2022-08-09T12:20:19.047Z,2.17
2022-08-09T12:22:51.985Z,2.40
2022-08-09T12:25:36.492Z,2.20
2022-08-09T12:28:58.862Z,2.20
2022-08-09T12:30:58.624Z,1.70
2022-08-09T12:33:35.323Z,2.00
2022-08-09T12:36:31.647Z,2.08
2022-08-09T12:39:02.596Z,2.55
2022-08-09T12:41:39.490Z,2.33
2022-08-09T12:44:10.211Z,2.50
2022-08-09T12:46:43.076Z,2.50
2022-08-09T12:49:13.251Z,2.65
2022-08-09T12:52:01.012Z,2.30
2022-08-09T12:54:29.637Z,2.15
2022-08-09T12:56:59.162Z,2.10
2022-08-09T12:59:39.987Z,2.25
2022-08-09T13:02:21.166Z,1.88
2022-08-09T13:05:02.824Z,2.33
2022-08-09T13:07:50.342Z,2.45
2022-08-09T13:10:18.711Z,2.42
2022-08-09T13:13:10.122Z,2.38
2022-08-09T13:15:51.078Z,2.03
2022-08-09T13:18:18.834Z,2.42
2022-08-09T13:21:04.276Z,2.28
2022-08-09T13:24:06.460Z,1.90
2022-08-09T13:26:37.532Z,1.90
2022-08-09T13:29:07.513Z,2.10
2022-08-09T13:32:20.295Z,2.28
2022-08-09T13:34:23.521Z,2.40
2022-08-09T13:36:53.266Z,1.90
2022-08-09T13:41:50.737Z,2.00
2022-08-09T13:42:12.306Z,2.45
2022-08-09T13:44:42.839Z,2.22
2022-08-09T13:47:26.818Z,2.28
2022-08-09T13:50:01.241Z,2.20
2022-08-09T13:52:33.327Z,2.30
2022-08-09T13:55:04.567Z,2.20
2022-08-09T13:57:40.334Z,2.40
2022-08-09T14:00:13.149Z,2.30
2022-08-09T14:03:03.124Z,2.20
2022-08-09T14:05:56.722Z,2.10
2022-08-09T14:08:20.921Z,2.10
2022-08-09T14:10:52.863Z,2.30
2022-08-09T14:14:14.682Z,2.10
2022-08-09T14:16:14.159Z,2.17
2022-08-09T14:18:45.149Z,2.50
2022-08-09T14:21:18.330Z,2.58
2022-08-09T14:23:54.525Z,2.30
2022-08-09T14:26:25.449Z,2.58
2022-08-09T14:28:59.938Z,2.33
2022-08-09T14:31:36.012Z,1.90
2022-08-09T14:34:17.624Z,2.08
2022-08-09T14:36:55.376Z,1.85
2022-08-09T14:39:40.217Z,2.00
2022-08-09T14:42:12.524Z,1.88
2022-08-09T14:44:48.210Z,2.10
2022-08-09T14:47:45.348Z,2.30
2022-08-09T14:50:16.003Z,1.92
2022-08-09T14:52:50.061Z,1.80
2022-08-09T14:55:20.965Z,1.95
2022-08-09T14:57:49.278Z,2.40
2022-08-09T15:00:17.781Z,1.90
2022-08-09T15:02:47.241Z,1.63
2022-08-09T15:05:16.245Z,1.63
2022-08-09T15:07:45.515Z,2.25
2022-08-09T15:10:24.937Z,1.60
2022-08-09T15:12:53.110Z,1.70
2022-08-09T15:15:21.331Z,1.60
2022-08-09T15:17:52.364Z,1.80
2022-08-09T15:21:57.454Z,1.70
2022-08-09T15:24:02.787Z,1.63
2022-08-09T15:25:59.375Z,2.17
2022-08-09T15:28:28.405Z,1.95
2022-08-09T15:31:07.368Z,1.70
2022-08-09T15:34:18.345Z,1.95
2022-08-09T15:36:31.023Z,1.73
2022-08-09T15:39:00.046Z,1.63
2022-08-09T15:41:32.007Z,1.80
2022-08-09T15:44:00.396Z,1.70
2022-08-09T15:46:32.442Z,1.75
2022-08-09T15:49:21.239Z,1.70
2022-08-09T15:52:05.062Z,1.77
2022-08-09T15:54:52.528Z,2.10
2022-08-09T15:57:35.835Z,1.88
2022-08-09T16:00:15.316Z,1.77
2022-08-09T16:02:54.540Z,1.45
2022-08-09T16:05:24.003Z,1.67
2022-08-09T16:07:51.734Z,1.80
2022-08-09T16:10:54.602Z,1.65
2022-08-09T16:13:18.973Z,1.67
2022-08-09T16:16:11.422Z,1.60
2022-08-09T16:18:44.826Z,1.83
2022-08-09T16:21:17.607Z,1.80
2022-08-09T16:23:55.780Z,1.65
2022-08-09T16:26:35.646Z,1.83
2022-08-09T16:29:11.477Z,1.70
2022-08-09T16:32:20.275Z,1.90
2022-08-09T16:34:29.754Z,1.77
2022-08-09T16:37:17.441Z,1.85
2022-08-09T16:39:54.580Z,2.10
2022-08-09T16:42:33.311Z,1.92
2022-08-09T16:45:02.456Z,2.00
2022-08-09T16:48:41.193Z,1.95
2022-08-09T16:50:32.578Z,2.20
2022-08-09T16:53:01.862Z,1.70
2022-08-09T16:55:44.290Z,1.70
2022-08-09T16:58:18.024Z,2.10
2022-08-09T17:00:47.351Z,1.63
2022-08-09T17:03:21.359Z,1.80
2022-08-09T17:06:03.508Z,1.73
2022-08-09T17:08:43.073Z,1.67
2022-08-09T17:11:39.967Z,1.73
2022-08-09T17:14:25.684Z,2.00
2022-08-09T17:17:01.109Z,2.00
2022-08-09T17:19:46.740Z,1.70
2022-08-09T17:22:24.650Z,2.30
2022-08-09T17:25:03.425Z,1.63
2022-08-09T17:27:33.434Z,1.88
2022-08-09T17:30:04.858Z,1.70
2022-08-09T17:32:38.223Z,1.83
2022-08-09T17:35:11.842Z,1.77
2022-08-09T17:38:11.243Z,1.70
2022-08-09T17:40:29.447Z,1.73
2022-08-09T17:42:59.658Z,2.03
2022-08-09T17:46:02.195Z,1.80
2022-08-09T17:48:29.250Z,2.10
2022-08-09T17:51:06.579Z,2.08
2022-08-09T17:53:51.601Z,1.80
2022-08-09T17:56:27.717Z,1.95
2022-08-09T17:58:57.209Z,2.22
2022-08-09T18:01:25.157Z,2.10
2022-08-09T18:03:54.921Z,2.20
2022-08-09T18:06:31.886Z,1.80
2022-08-09T18:09:03.197Z,2.38
2022-08-09T18:11:32.181Z,2.08
2022-08-09T18:14:20.221Z,2.53
2022-08-09T18:16:48.785Z,2.28
2022-08-09T18:20:54.131Z,2.38
2022-08-09T18:22:13.154Z,1.85
2022-08-09T18:24:45.554Z,2.03
2022-08-09T18:27:42.142Z,2.00
2022-08-09T18:30:42.019Z,2.10
2022-08-09T18:32:54.295Z,2.30
2022-08-09T18:35:58.452Z,2.00
2022-08-09T18:38:13.089Z,2.38
2022-08-09T18:40:42.921Z,1.90
2022-08-09T18:43:12.105Z,2.20
2022-08-09T18:46:50.074Z,2.20
2022-08-09T18:48:30.350Z,2.40
2022-08-09T18:51:01.980Z,2.20
2022-08-09T18:53:41.419Z,2.25
2022-08-09T18:56:20.026Z,2.40
2022-08-09T18:58:56.557Z,2.15
2022-08-09T19:01:24.582Z,1.98
2022-08-09T19:04:01.446Z,2.20
2022-08-09T19:06:38.420Z,2.25
2022-08-09T19:09:07.461Z,2.30
2022-08-09T19:11:38.389Z,2.05
2022-08-09T19:14:06.695Z,2.20
2022-08-09T19:16:36.048Z,2.15
2022-08-09T19:19:25.003Z,2.28
2022-08-09T19:22:06.742Z,2.28
2022-08-09T19:25:08.999Z,2.33
2022-08-09T19:27:23.593Z,2.50
2022-08-09T19:30:24.650Z,2.17
2022-08-09T19:32:44.164Z,2.50
2022-08-09T19:35:11.927Z,2.38
2022-08-09T19:37:54.767Z,2.55
2022-08-09T19:40:34.048Z,2.10
2022-08-09T19:43:05.107Z,2.40
2022-08-09T19:45:38.946Z,2.40
2022-08-09T19:48:10.616Z,2.63
2022-08-09T19:50:50.538Z,2.30
2022-08-09T19:53:23.216Z,2.20
2022-08-09T19:56:05.865Z,2.30
2022-08-09T19:58:34.548Z,2.30
2022-08-09T20:01:02.448Z,2.30
2022-08-09T20:04:25.218Z,2.45
2022-08-09T20:06:22.346Z,2.53
2022-08-09T20:08:56.881Z,2.20
2022-08-09T20:11:26.394Z,2.78
2022-08-09T20:13:54.892Z,2.83
2022-08-09T20:16:38.148Z,2.50
2022-08-09T20:19:49.619Z,2.40
2022-08-09T20:22:00.382Z,2.88
2022-08-09T20:24:34.214Z,2.33
2022-08-09T20:27:05.683Z,2.40
2022-08-09T20:29:37.380Z,2.60
2022-08-09T20:32:29.978Z,2.60
2022-08-09T20:34:54.857Z,2.55
2022-08-09T20:37:22.846Z,2.67
2022-08-09T20:40:16.227Z,2.42
2022-08-09T20:42:40.227Z,2.30
2022-08-09T20:45:59.668Z,2.22
2022-08-09T20:48:08.798Z,2.25
2022-08-09T20:50:46.369Z,2.25
2022-08-09T20:53:18.799Z,2.40
2022-08-09T20:56:05.834Z,2.53
2022-08-09T20:58:33.904Z,2.55
2022-08-09T21:01:32.730Z,2.35
2022-08-09T21:04:35.605Z,2.63
2022-08-09T21:06:42.891Z,2.13
2022-08-09T21:09:13.441Z,2.20
2022-08-09T21:14:31.570Z,2.67
2022-08-09T21:17:00.389Z,2.28
2022-08-09T21:20:04.475Z,2.90
2022-08-09T21:22:36.315Z,2.58
2022-08-09T21:25:21.279Z,2.50
2022-08-09T21:28:00.976Z,3.40
2022-08-09T21:30:29.146Z,2.80
2022-08-09T21:32:57.503Z,2.20
2022-08-09T21:35:26.348Z,2.50
2022-08-09T21:38:00.502Z,2.70
2022-08-09T21:40:32.514Z,2.70
2022-08-09T21:43:02.512Z,2.50
2022-08-09T21:45:30.588Z,2.50
2022-08-09T21:47:58.514Z,2.50
2022-08-09T21:50:38.987Z,2.60
2022-08-09T21:53:15.618Z,3.03
2022-08-09T21:55:51.890Z,2.78
2022-08-09T21:58:21.078Z,2.75
2022-08-09T22:00:56.960Z,2.83
2022-08-09T22:03:26.173Z,2.78
2022-08-09T22:05:55.244Z,2.90
2022-08-09T22:08:26.659Z,2.80
2022-08-09T22:11:04.850Z,2.55
2022-08-09T22:13:44.769Z,2.65
2022-08-09T22:16:12.859Z,2.80
2022-08-09T22:18:44.092Z,2.67
2022-08-09T22:21:24.047Z,3.15
2022-08-09T22:23:59.906Z,2.78
2022-08-09T22:26:35.035Z,2.70
2022-08-09T22:29:09.097Z,2.65
2022-08-09T22:31:38.495Z,2.88
2022-08-09T22:34:14.699Z,2.90
2022-08-09T22:36:46.092Z,3.00
2022-08-09T22:39:47.067Z,2.65
2022-08-09T22:42:02.286Z,2.47
2022-08-09T22:44:33.124Z,2.85
2022-08-09T22:48:14.262Z,2.65
2022-08-09T22:49:51.935Z,2.55
2022-08-09T22:52:20.135Z,2.53
2022-08-09T22:54:48.807Z,2.78
2022-08-09T22:57:16.594Z,2.55
2022-08-09T22:59:58.189Z,2.50
2022-08-09T23:02:27.231Z,2.53
2022-08-09T23:04:57.033Z,2.65
2022-08-09T23:08:23.283Z,2.45
2022-08-09T23:10:31.980Z,2.45
2022-08-09T23:12:59.783Z,2.80
2022-08-09T23:15:30.212Z,2.22
2022-08-09T23:17:58.057Z,2.42
2022-08-09T23:20:28.817Z,2.80
2022-08-09T23:22:56.590Z,2.13
2022-08-09T23:25:24.338Z,2.90
2022-08-09T23:27:57.273Z,2.30
2022-08-09T23:30:41.182Z,2.75
2022-08-09T23:33:19.200Z,2.80
2022-08-09T23:36:04.808Z,2.80
2022-08-09T23:38:34.709Z,2.17
2022-08-09T23:41:02.622Z,2.40
2022-08-09T23:43:30.360Z,2.63
2022-08-09T23:45:59.532Z,2.75
2022-08-09T23:48:27.224Z,2.65
2022-08-09T23:50:54.963Z,2.75
2022-08-09T23:53:22.635Z,2.88
2022-08-09T23:55:55.479Z,3.00
2022-08-09T23:58:24.261Z,2.80
